Terminal Aerodrome Forecast
Issued by NWS

Home | Current Version | Previous Version | Text Only | Print | Product List | Glossary On
Versions: 1 2 3 4 5 6 7 8 9 10 11 12 13 14
000
FTUS45 KRIW 050359 AAA
TAFCOD
TAF AMD
KCOD 050359Z 0504/0524 33007KT 3SM -SN SCT015 OVC030
      TEMPO 0504/0507 1 1/2SM -SN OVC010
     FM050700 01012G18KT 1 1/2SM -SN BKN010 OVC020
     FM051300 30014G20KT 5SM -SN BKN020 OVC040
     FM051800 29012G18KT P6SM SCT040 BKN080
      AMD LTD TO CLD VIS AND WIND=

USA.gov is the U.S. government's official web portal to all federal, state and local government web resources and services.